Time;durP1;ratioP1;P1;durP2;ratioP2;P2;SDS_P1;SDS_P2;PMS_P1;PMS_P2;Temp;Humidity;BMP_temperature;BMP_pressure;BME280_temperature;BME280_humidity;BME280_pressure;Samples;Min_cycle;Max_cycle;Signal;HPM_P1;HPM_P2
2024/01/25 00:00:50;;;;;;;28.25;6.50;;;8.10;84.30;;;;;;5117720;28;20031;-86
2024/01/25 00:03:15;;;;;;;34.17;6.22;;;8.10;84.20;;;;;;5110733;28;20036;-87
2024/01/25 00:05:41;;;;;;;32.50;6.22;;;8.10;84.30;;;;;;5107572;28;20035;-87
2024/01/25 00:08:07;;;;;;;31.50;6.32;;;8.00;84.30;;;;;;5106087;27;20023;-87
2024/01/25 00:10:32;;;;;;;27.20;6.68;;;7.90;84.30;;;;;;5125232;27;20473;-87
2024/01/25 00:12:58;;;;;;;39.30;6.28;;;7.90;84.30;;;;;;5110083;27;20038;-87
2024/01/25 00:15:24;;;;;;;31.08;5.43;;;7.90;84.40;;;;;;5124353;27;20060;-87
2024/01/25 00:17:49;;;;;;;31.15;5.85;;;7.80;84.40;;;;;;5102635;27;20028;-86
2024/01/25 00:20:15;;;;;;;35.22;6.68;;;7.80;84.50;;;;;;5121262;27;20081;-87
2024/01/25 00:22:41;;;;;;;31.70;6.82;;;7.80;84.60;;;;;;5113913;28;20042;-86
2024/01/25 00:25:07;;;;;;;32.25;6.53;;;7.80;84.70;;;;;;5125262;27;20027;-86
2024/01/25 00:27:33;;;;;;;31.17;6.47;;;7.70;84.80;;;;;;5126389;27;20039;-84
2024/01/25 00:29:58;;;;;;;33.20;6.32;;;8.50;85.70;;;;;;5127854;27;20035;-85
2024/01/25 00:32:24;;;;;;;35.42;6.95;;;7.70;84.90;;;;;;5124305;27;20039;-84
2024/01/25 00:34:50;;;;;;;30.42;6.20;;;7.60;84.80;;;;;;5120628;27;20122;-85
2024/01/25 00:37:16;;;;;;;30.35;6.07;;;7.60;85.00;;;;;;5106739;28;20036;-85
2024/01/25 00:39:42;;;;;;;29.55;6.63;;;7.60;85.10;;;;;;5128029;27;20464;-85
2024/01/25 00:42:07;;;;;;;28.42;6.25;;;7.60;85.10;;;;;;5124283;27;20036;-86
2024/01/25 00:44:33;;;;;;;30.48;6.10;;;7.50;85.10;;;;;;5122411;27;20470;-85
2024/01/25 00:46:59;;;;;;;29.50;5.68;;;7.50;85.10;;;;;;5127806;27;20091;-85
2024/01/25 00:49:25;;;;;;;28.80;6.30;;;7.50;85.30;;;;;;5106779;28;20131;-85
2024/01/25 00:51:58;;;;;;;35.50;6.07;;;7.40;85.20;;;;;;5125412;27;20031;-85
2024/01/25 00:54:24;;;;;;;24.48;5.65;;;7.40;85.40;;;;;;5117021;27;20071;-86
2024/01/25 00:56:52;;;;;;;27.85;5.80;;;7.40;85.50;;;;;;5125349;27;20035;-86
2024/01/25 00:59:18;;;;;;;29.45;6.25;;;7.40;85.60;;;;;;5105423;27;20051;-86
2024/01/25 01:01:48;;;;;;;25.92;6.15;;;7.40;85.80;;;;;;5108530;27;20043;-86
2024/01/25 01:04:14;;;;;;;34.65;6.32;;;7.30;85.80;;;;;;5118105;27;20040;-86
2024/01/25 01:06:40;;;;;;;29.25;5.75;;;7.30;85.80;;;;;;5110163;27;20027;-86
2024/01/25 01:09:06;;;;;;;25.52;6.35;;;7.30;85.90;;;;;;5132579;27;20063;-86
2024/01/25 01:11:31;;;;;;;28.75;6.85;;;7.30;85.90;;;;;;5135459;27;20043;-88
2024/01/25 01:13:57;;;;;;;30.30;6.57;;;7.30;86.00;;;;;;5128448;27;20040;-87
2024/01/25 01:16:23;;;;;;;44.47;7.65;;;7.20;86.00;;;;;;5123894;27;20074;-87
2024/01/25 01:18:48;;;;;;;32.08;6.05;;;7.20;86.10;;;;;;5122114;27;20071;-86
2024/01/25 01:21:14;;;;;;;29.00;5.85;;;7.20;86.10;;;;;;5121195;27;20040;-86
2024/01/25 01:23:39;;;;;;;33.72;6.30;;;7.20;86.20;;;;;;5138314;27;20485;-86
2024/01/25 01:26:05;;;;;;;34.38;6.95;;;7.20;86.30;;;;;;5107391;27;20035;-86
2024/01/25 01:28:31;;;;;;;37.13;6.10;;;7.10;86.30;;;;;;5123409;27;20050;-86
2024/01/25 01:30:56;;;;;;;24.88;4.68;;;7.10;86.30;;;;;;5122379;27;20039;-86
2024/01/25 01:33:22;;;;;;;28.77;5.57;;;7.10;86.40;;;;;;5119102;27;20118;-86
2024/01/25 01:35:48;;;;;;;27.40;5.43;;;7.10;86.50;;;;;;5120849;27;20039;-86
2024/01/25 01:38:13;;;;;;;31.20;5.35;;;7.10;86.50;;;;;;5118602;27;20065;-86
2024/01/25 01:40:39;;;;;;;25.38;5.30;;;7.00;86.50;;;;;;5103921;27;20031;-86
2024/01/25 01:43:04;;;;;;;27.27;5.05;;;7.00;86.60;;;;;;5122259;27;20051;-86
2024/01/25 01:45:30;;;;;;;22.13;5.10;;;7.00;86.60;;;;;;5123694;27;20061;-86
2024/01/25 01:47:56;;;;;;;19.98;4.50;;;7.00;86.60;;;;;;5118078;27;20027;-86
2024/01/25 01:50:23;;;;;;;26.10;5.45;;;7.00;86.70;;;;;;5124784;27;20114;-86
2024/01/25 01:52:50;;;;;;;22.90;5.25;;;7.00;86.80;;;;;;5118235;27;20035;-86
2024/01/25 01:55:17;;;;;;;28.17;5.20;;;7.00;86.90;;;;;;5130603;27;20108;-86
2024/01/25 01:57:44;;;;;;;26.77;5.85;;;7.00;86.90;;;;;;5120382;27;20117;-86
2024/01/25 02:00:10;;;;;;;38.10;7.35;;;7.00;87.00;;;;;;5125009;27;20050;-86
2024/01/25 02:02:36;;;;;;;32.63;6.05;;;7.00;87.00;;;;;;5105608;27;20032;-86
2024/01/25 02:05:02;;;;;;;28.90;5.57;;;7.00;87.00;;;;;;5106321;27;20076;-87
2024/01/25 02:07:30;;;;;;;29.75;7.47;;;6.90;87.10;;;;;;5125167;27;20035;-87
2024/01/25 02:09:55;;;;;;;28.30;5.50;;;6.90;87.20;;;;;;5121157;27;20038;-87
2024/01/25 02:12:21;;;;;;;30.02;6.40;;;6.90;87.20;;;;;;5116173;27;20031;-87
2024/01/25 02:14:46;;;;;;;30.00;5.90;;;6.90;87.30;;;;;;5119294;27;20084;-87
2024/01/25 02:17:12;;;;;;;28.63;5.43;;;6.90;87.40;;;;;;5106553;28;20031;-86
2024/01/25 02:19:37;;;;;;;28.80;5.28;;;6.90;87.40;;;;;;5112090;27;20507;-86
2024/01/25 02:22:05;;;;;;;25.67;5.78;;;6.80;87.40;;;;;;5124893;27;20499;-86
2024/01/25 02:24:30;;;;;;;32.00;6.72;;;6.90;87.60;;;;;;5104303;28;20486;-86
2024/01/25 02:26:56;;;;;;;38.28;6.43;;;7.40;88.00;;;;;;5130204;27;20038;-86
2024/01/25 02:29:22;;;;;;;29.45;6.68;;;6.80;87.60;;;;;;5114881;27;20043;-87
2024/01/25 02:31:47;;;;;;;27.73;5.43;;;6.80;87.70;;;;;;5122225;27;20409;-87
2024/01/25 02:34:13;;;;;;;38.50;7.15;;;6.80;87.70;;;;;;5099929;27;20036;-87
2024/01/25 02:36:38;;;;;;;33.92;6.72;;;6.80;87.80;;;;;;5124224;27;20456;-87
2024/01/25 02:39:04;;;;;;;32.40;6.63;;;6.80;87.90;;;;;;5103272;28;20043;-87
2024/01/25 02:41:31;;;;;;;40.28;7.00;;;6.80;87.90;;;;;;5116610;27;20537;-87
2024/01/25 02:43:57;;;;;;;30.35;5.75;;;6.80;88.00;;;;;;5122356;27;20087;-87
2024/01/25 02:46:23;;;;;;;40.65;7.35;;;6.80;88.00;;;;;;5118455;27;20043;-86
2024/01/25 02:48:48;;;;;;;26.92;5.93;;;6.80;88.00;;;;;;5110916;27;20038;-87
2024/01/25 02:51:14;;;;;;;41.75;7.45;;;6.70;88.00;;;;;;5124727;27;20042;-86
2024/01/25 02:53:40;;;;;;;34.22;6.85;;;6.70;88.00;;;;;;5103944;28;20080;-86
2024/01/25 02:56:06;;;;;;;40.55;7.38;;;6.70;88.10;;;;;;5121105;27;20117;-86
2024/01/25 02:58:32;;;;;;;32.40;5.85;;;6.70;88.10;;;;;;5120458;27;20093;-86
2024/01/25 03:00:58;;;;;;;41.83;8.23;;;6.60;88.10;;;;;;5113186;27;20502;-86
2024/01/25 03:03:23;;;;;;;37.28;6.53;;;6.60;88.20;;;;;;5097499;27;20031;-86
2024/01/25 03:05:51;;;;;;;28.95;6.10;;;6.90;88.50;;;;;;5123613;27;20036;-86
2024/01/25 03:08:16;;;;;;;41.88;6.30;;;6.60;88.50;;;;;;5119026;27;20435;-86
2024/01/25 03:10:42;;;;;;;33.97;6.60;;;7.00;88.80;;;;;;5123667;27;20093;-86
2024/01/25 03:13:08;;;;;;;29.45;5.70;;;6.50;88.60;;;;;;5106048;28;20057;-86
2024/01/25 03:15:33;;;;;;;33.05;7.38;;;6.50;88.60;;;;;;5119810;28;20047;-86
2024/01/25 03:17:59;;;;;;;33.70;6.72;;;6.50;88.70;;;;;;5120287;28;20032;-86
2024/01/25 03:20:24;;;;;;;27.60;6.55;;;6.50;88.70;;;;;;5120767;28;20057;-87
2024/01/25 03:22:50;;;;;;;32.05;6.35;;;6.50;88.80;;;;;;5105583;28;20032;-86
2024/01/25 03:25:16;;;;;;;28.65;5.85;;;6.50;88.80;;;;;;5121518;28;20031;-86
2024/01/25 03:27:41;;;;;;;29.33;5.95;;;6.50;88.80;;;;;;5105520;28;20031;-86
2024/01/25 03:30:07;;;;;;;23.83;5.13;;;6.50;88.90;;;;;;5111656;28;20406;-86
2024/01/25 03:32:34;;;;;;;31.42;6.55;;;6.50;88.90;;;;;;5126941;28;20035;-85
2024/01/25 03:34:59;;;;;;;26.25;5.15;;;6.50;88.90;;;;;;5116605;28;20058;-86
2024/01/25 03:37:25;;;;;;;26.38;5.45;;;6.40;88.80;;;;;;5123657;28;20501;-86
2024/01/25 03:39:51;;;;;;;25.23;5.55;;;6.40;88.80;;;;;;5104318;28;20038;-86
2024/01/25 03:42:17;;;;;;;33.72;6.55;;;6.40;88.80;;;;;;5102000;28;20483;-86
2024/01/25 03:44:44;;;;;;;27.02;6.28;;;6.40;88.80;;;;;;5116128;27;20039;-86
2024/01/25 03:47:10;;;;;;;29.63;5.63;;;6.40;88.70;;;;;;5115578;27;20036;-86
2024/01/25 03:49:36;;;;;;;25.05;5.93;;;6.40;88.70;;;;;;5127043;27;20039;-86
2024/01/25 03:52:03;;;;;;;24.20;5.13;;;6.30;88.70;;;;;;5117146;27;20042;-86
2024/01/25 03:54:28;;;;;;;20.55;5.40;;;6.30;88.70;;;;;;5123375;27;20078;-87
2024/01/25 03:56:54;;;;;;;24.85;5.15;;;6.30;88.70;;;;;;5126095;27;20039;-86
2024/01/25 03:59:19;;;;;;;26.30;4.63;;;6.30;88.80;;;;;;5115404;27;20093;-86
2024/01/25 04:01:47;;;;;;;22.88;4.93;;;6.30;88.70;;;;;;5119430;27;20038;-86
2024/01/25 04:04:15;;;;;;;24.02;5.55;;;6.30;88.70;;;;;;5115999;27;20110;-86
2024/01/25 04:06:45;;;;;;;21.13;4.57;;;6.20;88.60;;;;;;5123405;27;20035;-86
2024/01/25 04:09:11;;;;;;;22.95;5.72;;;6.20;88.70;;;;;;5107015;27;20031;-86
2024/01/25 04:11:37;;;;;;;24.60;5.18;;;6.20;88.60;;;;;;5124475;27;20047;-86
2024/01/25 04:14:04;;;;;;;25.88;5.57;;;6.20;88.60;;;;;;5117500;27;20498;-87
2024/01/25 04:16:30;;;;;;;28.27;4.60;;;6.20;88.60;;;;;;5127123;27;20120;-87
2024/01/25 04:18:55;;;;;;;26.17;5.72;;;6.20;88.60;;;;;;5109518;27;20040;-87
2024/01/25 04:21:21;;;;;;;27.58;5.95;;;6.20;88.60;;;;;;5105364;28;20046;-87
2024/01/25 04:23:47;;;;;;;20.55;4.72;;;6.20;88.60;;;;;;5119050;27;20059;-87
2024/01/25 04:26:12;;;;;;;21.45;4.65;;;6.20;88.60;;;;;;5124236;27;20060;-87
2024/01/25 04:28:38;;;;;;;25.92;4.68;;;6.10;88.50;;;;;;5104391;27;20078;-86
2024/01/25 04:31:03;;;;;;;24.73;4.95;;;6.20;88.60;;;;;;5117504;27;20039;-86
2024/01/25 04:33:32;;;;;;;21.83;5.47;;;6.10;88.50;;;;;;5125175;27;20035;-86
2024/01/25 04:35:58;;;;;;;20.80;4.68;;;6.10;88.50;;;;;;5118453;27;20046;-85
2024/01/25 04:38:24;;;;;;;23.90;4.90;;;6.60;88.80;;;;;;5118019;27;20056;-85
2024/01/25 04:40:49;;;;;;;28.17;5.78;;;6.10;88.50;;;;;;5126251;27;20027;-86
2024/01/25 04:43:15;;;;;;;30.42;5.53;;;6.10;88.60;;;;;;5106819;27;20031;-87
2024/01/25 04:45:41;;;;;;;25.30;5.13;;;6.10;88.60;;;;;;5123141;27;20573;-87
2024/01/25 04:48:06;;;;;;;26.63;6.45;;;6.00;88.50;;;;;;5108129;27;20046;-87
2024/01/25 04:50:32;;;;;;;21.15;4.70;;;6.00;88.50;;;;;;5117102;27;20555;-86
2024/01/25 04:52:58;;;;;;;17.17;4.53;;;6.00;88.60;;;;;;5118790;27;20110;-86
2024/01/25 04:55:24;;;;;;;20.20;4.20;;;6.00;88.60;;;;;;5123081;27;20039;-86
2024/01/25 04:57:53;;;;;;;28.52;6.25;;;6.00;88.60;;;;;;5120705;27;20681;-86
2024/01/25 05:00:21;;;;;;;28.75;5.03;;;6.00;88.60;;;;;;5122179;27;20099;-86
2024/01/25 05:02:47;;;;;;;24.73;4.72;;;6.00;88.60;;;;;;5124787;27;20027;-86
2024/01/25 05:05:13;;;;;;;27.52;5.85;;;6.00;88.70;;;;;;5115474;27;20065;-87
2024/01/25 05:07:38;;;;;;;33.35;6.63;;;6.30;88.90;;;;;;5106527;28;20027;-87
2024/01/25 05:10:04;;;;;;;25.20;5.30;;;5.90;88.70;;;;;;5114442;27;20039;-87
2024/01/25 05:12:30;;;;;;;30.77;7.05;;;5.90;88.80;;;;;;5118911;27;20039;-87
2024/01/25 05:14:56;;;;;;;26.08;4.88;;;5.90;88.80;;;;;;5120681;27;20093;-87
2024/01/25 05:17:21;;;;;;;26.48;4.88;;;5.90;88.90;;;;;;5106393;27;20454;-87
2024/01/25 05:19:47;;;;;;;23.60;4.80;;;5.90;89.00;;;;;;5125328;27;20035;-87
2024/01/25 05:22:12;;;;;;;32.55;6.43;;;5.80;89.00;;;;;;5128403;27;20045;-87
2024/01/25 05:24:38;;;;;;;19.10;5.03;;;5.90;89.20;;;;;;5127988;27;20035;-86
2024/01/25 05:27:04;;;;;;;33.95;6.68;;;5.80;89.30;;;;;;5128590;27;20039;-86
2024/01/25 05:29:29;;;;;;;31.88;6.00;;;5.80;89.30;;;;;;5130121;27;20122;-86
2024/01/25 05:31:55;;;;;;;23.88;4.75;;;5.80;89.40;;;;;;5110771;27;20122;-86
2024/01/25 05:34:21;;;;;;;24.33;5.13;;;5.80;89.50;;;;;;5125425;27;20047;-86
2024/01/25 05:36:47;;;;;;;22.92;4.78;;;5.80;89.60;;;;;;5125474;27;20059;-86
2024/01/25 05:39:13;;;;;;;22.67;4.85;;;6.60;90.00;;;;;;5128240;27;20043;-86
2024/01/25 05:41:39;;;;;;;31.60;5.75;;;5.80;89.70;;;;;;5124817;27;20061;-87
2024/01/25 05:44:05;;;;;;;23.00;4.95;;;5.80;89.70;;;;;;5131612;27;20040;-86
2024/01/25 05:46:30;;;;;;;28.55;6.35;;;5.80;89.80;;;;;;5114310;27;20288;-87
2024/01/25 05:48:56;;;;;;;27.95;5.38;;;6.40;90.00;;;;;;5116626;27;20054;-87
2024/01/25 05:51:21;;;;;;;26.48;5.40;;;5.80;89.80;;;;;;5133773;27;20047;-86
2024/01/25 05:53:47;;;;;;;23.63;4.80;;;5.70;89.80;;;;;;5115358;28;20107;-85
2024/01/25 05:56:13;;;;;;;26.27;5.22;;;5.70;89.80;;;;;;5108473;28;20119;-86
2024/01/25 05:58:38;;;;;;;28.25;5.60;;;5.70;89.90;;;;;;5119861;27;20059;-85
2024/01/25 06:01:04;;;;;;;24.45;5.18;;;5.70;89.90;;;;;;5120777;27;20104;-85
2024/01/25 06:03:30;;;;;;;29.55;5.60;;;5.70;89.90;;;;;;5112751;27;20055;-85
2024/01/25 06:05:55;;;;;;;29.00;5.90;;;5.70;89.90;;;;;;5111612;27;20602;-85
2024/01/25 06:08:21;;;;;;;24.90;4.60;;;5.70;89.90;;;;;;5131267;27;20074;-86
2024/01/25 06:10:47;;;;;;;27.48;4.97;;;5.70;90.00;;;;;;5118302;27;20027;-87
2024/01/25 06:13:12;;;;;;;24.98;4.97;;;5.70;89.90;;;;;;5105366;27;20027;-87
2024/01/25 06:15:38;;;;;;;24.02;5.35;;;5.70;89.90;;;;;;5103182;28;20080;-87
2024/01/25 06:18:04;;;;;;;25.15;5.57;;;5.70;89.90;;;;;;5108141;27;20046;-87
2024/01/25 06:20:30;;;;;;;26.85;4.70;;;5.60;89.90;;;;;;5121654;27;20058;-87
2024/01/25 06:22:58;;;;;;;29.13;6.15;;;5.60;89.90;;;;;;5107013;27;20036;-87
2024/01/25 06:25:24;;;;;;;29.83;7.38;;;5.60;89.90;;;;;;5102635;28;20039;-87
2024/01/25 06:27:49;;;;;;;21.73;4.28;;;5.60;90.00;;;;;;5114494;27;20413;-87
2024/01/25 06:30:15;;;;;;;25.15;4.90;;;5.60;90.00;;;;;;5124186;27;20038;-86
2024/01/25 06:32:41;;;;;;;22.30;4.47;;;5.60;90.00;;;;;;5120806;27;20035;-86
2024/01/25 06:35:07;;;;;;;23.42;5.32;;;5.60;90.00;;;;;;5097748;27;20040;-86
2024/01/25 06:37:32;;;;;;;19.73;4.80;;;5.60;90.00;;;;;;5113372;27;20062;-86
2024/01/25 06:39:58;;;;;;;18.70;5.15;;;5.60;90.00;;;;;;5117249;27;20498;-87
2024/01/25 06:42:24;;;;;;;25.88;4.75;;;6.50;90.30;;;;;;5123249;27;20040;-87
2024/01/25 06:44:49;;;;;;;23.65;4.97;;;5.60;90.00;;;;;;5120746;27;20035;-87
2024/01/25 06:47:15;;;;;;;33.22;6.45;;;5.60;90.00;;;;;;5124726;27;20031;-86
2024/01/25 06:49:41;;;;;;;28.88;5.30;;;5.60;90.00;;;;;;5121557;27;20069;-87
2024/01/25 06:52:07;;;;;;;28.88;6.68;;;5.50;89.90;;;;;;5120839;27;20435;-87
2024/01/25 06:54:32;;;;;;;27.88;6.53;;;5.50;89.90;;;;;;5116448;27;20035;-85
2024/01/25 06:56:58;;;;;;;26.13;5.80;;;5.50;89.80;;;;;;5123610;27;20451;-88
2024/01/25 06:59:23;;;;;;;24.15;5.45;;;5.50;89.80;;;;;;5119842;27;20039;-88
2024/01/25 07:01:49;;;;;;;32.08;6.07;;;5.50;89.70;;;;;;5106994;27;20039;-87
2024/01/25 07:04:15;;;;;;;24.70;5.53;;;5.50;89.70;;;;;;5101934;28;20031;-87
2024/01/25 07:06:41;;;;;;;30.27;6.35;;;5.50;89.70;;;;;;5108701;28;20035;-89
2024/01/25 07:09:06;;;;;;;27.55;6.50;;;5.40;89.60;;;;;;5123804;27;20140;-89
2024/01/25 07:11:32;;;;;;;25.42;5.90;;;5.40;89.70;;;;;;5104247;27;20031;-89
2024/01/25 07:13:57;;;;;;;30.33;6.03;;;5.40;89.70;;;;;;5120911;28;20044;-87
2024/01/25 07:16:23;;;;;;;22.75;5.40;;;5.40;89.80;;;;;;5104578;28;20040;-87
2024/01/25 07:18:49;;;;;;;24.88;6.10;;;5.40;89.80;;;;;;5117921;27;20051;-87
2024/01/25 07:21:15;;;;;;;23.27;6.22;;;5.40;89.90;;;;;;5125011;27;20039;-87
2024/01/25 07:23:40;;;;;;;25.70;6.25;;;5.40;89.90;;;;;;5121097;27;20115;-87
2024/01/25 07:26:06;;;;;;;20.50;5.28;;;5.40;90.00;;;;;;5123826;27;20035;-87
2024/01/25 07:28:34;;;;;;;18.58;4.75;;;5.30;90.00;;;;;;5124944;27;20405;-87
2024/01/25 07:31:00;;;;;;;29.05;5.32;;;5.30;90.00;;;;;;5108247;28;20059;-87
2024/01/25 07:33:25;;;;;;;27.70;5.57;;;5.40;90.00;;;;;;5107243;27;20083;-88
2024/01/25 07:35:51;;;;;;;20.25;4.78;;;5.30;90.00;;;;;;5123886;27;20490;-87
2024/01/25 07:38:17;;;;;;;30.35;4.72;;;5.30;90.00;;;;;;5109949;27;20074;-88
2024/01/25 07:40:42;;;;;;;22.70;5.43;;;5.90;90.20;;;;;;5120386;27;20186;-88
2024/01/25 07:43:08;;;;;;;29.55;5.43;;;5.30;90.10;;;;;;5120404;27;20039;-87
2024/01/25 07:45:34;;;;;;;23.13;4.85;;;5.30;90.10;;;;;;5123815;27;20043;-87
2024/01/25 07:47:59;;;;;;;28.45;4.80;;;5.30;90.10;;;;;;5104000;27;20486;-88
2024/01/25 07:50:25;;;;;;;26.08;5.20;;;5.30;90.10;;;;;;5109793;27;20035;-87
2024/01/25 07:52:51;;;;;;;33.80;6.10;;;5.30;90.20;;;;;;5103410;27;20035;-88
2024/01/25 07:55:17;;;;;;;24.38;5.88;;;5.30;90.20;;;;;;5101802;28;20036;-87
2024/01/25 07:57:42;;;;;;;24.65;5.40;;;5.30;90.20;;;;;;5117172;27;20039;-87
2024/01/25 08:00:09;;;;;;;18.42;5.20;;;5.30;90.20;;;;;;5127808;27;20047;-87
2024/01/25 08:02:36;;;;;;;22.08;4.60;;;5.30;90.30;;;;;;5128757;27;20130;-87
2024/01/25 08:05:02;;;;;;;34.53;6.97;;;5.30;90.30;;;;;;5107161;27;20031;-87
2024/01/25 08:07:30;;;;;;;24.55;5.65;;;5.30;90.30;;;;;;5128920;27;20069;-88
2024/01/25 08:09:58;;;;;;;21.83;5.10;;;5.30;90.40;;;;;;5108585;27;20393;-88
2024/01/25 08:12:25;;;;;;;25.80;5.57;;;5.30;90.40;;;;;;5144110;27;20042;-88
2024/01/25 08:14:50;;;;;;;22.15;5.95;;;5.30;90.40;;;;;;5139336;27;20042;-88
2024/01/25 08:17:16;;;;;;;27.20;5.15;;;5.40;90.50;;;;;;5112139;27;20031;-88
2024/01/25 08:19:41;;;;;;;25.33;5.90;;;5.30;90.60;;;;;;5126599;27;20538;-88
2024/01/25 08:22:07;;;;;;;26.27;5.38;;;5.40;90.50;;;;;;5109389;27;20035;-88
2024/01/25 08:24:32;;;;;;;26.23;5.25;;;5.40;90.50;;;;;;5119102;27;20111;-87
2024/01/25 08:26:58;;;;;;;27.10;4.93;;;5.40;90.50;;;;;;5122614;27;20030;-87
2024/01/25 08:29:24;;;;;;;25.17;5.13;;;5.40;90.50;;;;;;5110613;27;20424;-87
2024/01/25 08:31:49;;;;;;;30.13;6.25;;;5.40;90.50;;;;;;5123158;27;20056;-87
2024/01/25 08:34:15;;;;;;;20.52;4.97;;;5.40;90.50;;;;;;5111657;27;20039;-88
2024/01/25 08:36:40;;;;;;;22.88;4.80;;;5.40;90.60;;;;;;5122965;27;20136;-87
2024/01/25 08:39:08;;;;;;;25.92;5.25;;;5.40;90.60;;;;;;5108296;27;20035;-87
2024/01/25 08:41:34;;;;;;;25.95;6.10;;;5.50;90.60;;;;;;5118977;27;20088;-87
2024/01/25 08:44:00;;;;;;;26.75;5.82;;;5.50;90.60;;;;;;5108897;28;20035;-87
2024/01/25 08:46:26;;;;;;;21.65;5.22;;;5.50;90.60;;;;;;5124299;27;20046;-87
2024/01/25 08:48:52;;;;;;;28.00;6.93;;;5.50;90.50;;;;;;5124629;27;20042;-87
2024/01/25 08:51:17;;;;;;;23.83;5.13;;;5.50;90.50;;;;;;5134176;27;20048;-87
2024/01/25 08:53:43;;;;;;;28.05;5.60;;;5.50;90.40;;;;;;5109581;27;20500;-87
2024/01/25 08:56:09;;;;;;;19.55;5.63;;;5.50;90.40;;;;;;5123069;27;20031;-86
2024/01/25 08:58:35;;;;;;;26.27;6.28;;;5.50;90.40;;;;;;5123129;27;20522;-87
2024/01/25 09:01:00;;;;;;;32.15;6.20;;;5.50;90.40;;;;;;5125793;27;20123;-87
2024/01/25 09:03:26;;;;;;;26.05;5.70;;;5.40;90.40;;;;;;5106974;27;20032;-87
2024/01/25 09:05:52;;;;;;;21.90;5.30;;;5.40;90.40;;;;;;5115121;27;20034;-88
2024/01/25 09:08:17;;;;;;;27.08;5.78;;;5.40;90.40;;;;;;5121184;27;20047;-87
2024/01/25 09:10:44;;;;;;;25.67;4.90;;;5.40;90.40;;;;;;5122347;27;20049;-87
2024/01/25 09:13:10;;;;;;;30.92;5.50;;;5.40;90.40;;;;;;5105342;27;20066;-87
2024/01/25 09:15:36;;;;;;;25.52;5.95;;;5.40;90.50;;;;;;5125153;27;20040;-87
2024/01/25 09:18:02;;;;;;;30.90;6.97;;;5.40;90.50;;;;;;5104760;27;20474;-87
2024/01/25 09:20:27;;;;;;;22.58;5.30;;;5.40;90.60;;;;;;5120491;27;20040;-87
2024/01/25 09:22:56;;;;;;;24.10;5.85;;;5.40;90.70;;;;;;5123997;27;20061;-87
2024/01/25 09:25:23;;;;;;;24.00;5.15;;;5.50;90.80;;;;;;5122370;27;20046;-87
2024/01/25 09:27:48;;;;;;;25.10;5.18;;;5.50;90.80;;;;;;5122917;27;20036;-88
2024/01/25 09:30:15;;;;;;;23.27;5.57;;;5.50;90.90;;;;;;5120750;27;20042;-88
2024/01/25 09:32:40;;;;;;;29.52;6.13;;;5.50;90.90;;;;;;5140936;27;20046;-87
2024/01/25 09:35:06;;;;;;;30.17;5.85;;;5.50;90.90;;;;;;5098053;27;20035;-87
2024/01/25 09:37:32;;;;;;;31.40;5.60;;;5.50;90.90;;;;;;5106719;27;20137;-87
2024/01/25 09:39:58;;;;;;;32.10;5.93;;;5.50;90.90;;;;;;5124114;27;20039;-87
2024/01/25 09:42:24;;;;;;;24.35;5.90;;;5.50;91.00;;;;;;5120872;27;20043;-87
2024/01/25 09:44:53;;;;;;;25.40;6.70;;;5.50;91.00;;;;;;5118265;27;20397;-87
2024/01/25 09:47:21;;;;;;;25.02;6.97;;;5.50;91.10;;;;;;5104691;27;20402;-87
2024/01/25 09:49:47;;;;;;;29.98;6.13;;;5.50;91.10;;;;;;5118901;27;20036;-87
2024/01/25 09:52:13;;;;;;;36.03;7.75;;;5.50;91.10;;;;;;5108566;27;20050;-87
2024/01/25 09:54:39;;;;;;;29.33;7.15;;;5.60;91.20;;;;;;5103986;28;20031;-87
2024/01/25 09:57:13;;;;;;;30.95;8.68;;;5.80;91.30;;;;;;5125363;27;20035;-88
2024/01/25 09:59:39;;;;;;;34.55;7.68;;;5.60;91.30;;;;;;5113471;27;20040;-87
2024/01/25 10:02:04;;;;;;;25.70;7.43;;;5.60;91.40;;;;;;5125979;27;20041;-87
2024/01/25 10:04:30;;;;;;;37.08;10.07;;;5.60;91.40;;;;;;5118415;27;20114;-87
2024/01/25 10:06:56;;;;;;;35.25;11.80;;;5.70;91.50;;;;;;5108473;27;20031;-86
2024/01/25 10:09:22;;;;;;;37.88;10.20;;;5.70;91.60;;;;;;5106052;27;20446;-87
2024/01/25 10:11:48;;;;;;;38.65;8.45;;;5.70;91.70;;;;;;5107076;27;20069;-87
2024/01/25 10:14:14;;;;;;;35.75;8.00;;;5.80;91.80;;;;;;5109182;27;20046;-87
2024/01/25 10:16:39;;;;;;;33.33;8.50;;;5.80;91.80;;;;;;5117550;27;20119;-87
2024/01/25 10:19:08;;;;;;;34.22;7.85;;;5.80;91.90;;;;;;5122816;27;20039;-87
2024/01/25 10:21:36;;;;;;;30.60;8.02;;;5.90;92.00;;;;;;5121433;27;20039;-88
2024/01/25 10:24:02;;;;;;;37.28;8.55;;;5.90;92.00;;;;;;5130061;27;20031;-87
2024/01/25 10:26:28;;;;;;;33.17;8.60;;;5.90;92.00;;;;;;5126350;27;20035;-87
2024/01/25 10:28:54;;;;;;;34.35;10.02;;;6.70;92.20;;;;;;5127450;27;20055;-87
2024/01/25 10:31:23;;;;;;;37.15;10.60;;;6.00;92.00;;;;;;5136853;27;20035;-87
2024/01/25 10:33:49;;;;;;;38.25;11.50;;;6.00;92.00;;;;;;5117319;28;20071;-87
2024/01/25 10:36:16;;;;;;;35.95;11.18;;;6.10;92.00;;;;;;5106503;27;20035;-87
2024/01/25 10:38:44;;;;;;;40.42;12.77;;;6.10;92.00;;;;;;5122416;27;20066;-87
2024/01/25 10:41:09;;;;;;;40.30;13.73;;;6.10;91.90;;;;;;5122836;27;20032;-87
2024/01/25 10:43:36;;;;;;;42.47;13.50;;;6.10;91.90;;;;;;5122929;27;20042;-87
2024/01/25 10:46:01;;;;;;;52.13;13.60;;;6.10;91.90;;;;;;5104021;28;20119;-87
2024/01/25 10:48:31;;;;;;;40.53;14.05;;;6.20;91.90;;;;;;5103329;28;20118;-87
2024/01/25 10:50:59;;;;;;;41.13;13.23;;;6.20;91.90;;;;;;5103722;28;20035;-87
2024/01/25 10:53:24;;;;;;;45.92;10.88;;;6.20;91.90;;;;;;5118459;27;20050;-87
2024/01/25 10:55:51;;;;;;;43.13;12.23;;;6.30;91.90;;;;;;5121839;27;20027;-87
2024/01/25 10:58:16;;;;;;;36.97;10.63;;;6.30;92.00;;;;;;5105443;27;20039;-87
2024/01/25 11:00:59;;;;;;;38.17;10.75;;;6.50;92.00;;;;;;5119260;27;20039;-87
2024/01/25 11:03:30;;;;;;;33.15;9.57;;;6.30;92.10;;;;;;5114402;27;20076;-87
2024/01/25 11:06:09;;;;;;;36.47;9.68;;;6.30;92.00;;;;;;5102275;28;20044;-87
2024/01/25 11:08:38;;;;;;;40.25;9.13;;;6.40;91.90;;;;;;5121204;28;20509;-87
2024/01/25 11:11:10;;;;;;;37.63;9.25;;;6.40;92.00;;;;;;5120468;27;20046;-87
2024/01/25 11:13:41;;;;;;;39.72;10.45;;;6.40;92.00;;;;;;5117310;27;20027;-87
2024/01/25 11:16:17;;;;;;;33.58;8.00;;;6.40;91.80;;;;;;5122504;28;20158;-87
2024/01/25 11:18:49;;;;;;;37.72;7.85;;;6.40;91.80;;;;;;5112487;28;20118;-86
2024/01/25 11:21:26;;;;;;;30.98;8.13;;;6.40;91.90;;;;;;5113219;28;20047;-86
2024/01/25 11:24:02;;;;;;;37.40;9.48;;;6.50;92.00;;;;;;5114872;28;20032;-86
2024/01/25 11:26:28;;;;;;;32.33;7.60;;;6.50;92.00;;;;;;5124420;28;20047;-87
2024/01/25 11:28:55;;;;;;;37.85;8.32;;;6.80;92.10;;;;;;5124320;27;20043;-86
2024/01/25 11:31:22;;;;;;;32.10;8.18;;;6.60;92.10;;;;;;5104746;28;20513;-87
2024/01/25 11:33:48;;;;;;;39.15;8.02;;;6.60;92.10;;;;;;5107719;28;20047;-86
2024/01/25 11:36:14;;;;;;;29.00;7.97;;;6.70;92.10;;;;;;5115928;28;20039;-87
2024/01/25 11:38:39;;;;;;;33.75;7.95;;;6.70;92.10;;;;;;5121901;28;21987;-86
2024/01/25 11:41:05;;;;;;;40.50;10.20;;;6.70;92.00;;;;;;5122379;28;20039;-86
2024/01/25 11:43:30;;;;;;;41.67;10.82;;;6.70;92.00;;;;;;5115946;28;20038;-86
2024/01/25 11:45:56;;;;;;;47.58;11.13;;;6.70;92.00;;;;;;5117703;27;20104;-86
2024/01/25 11:48:22;;;;;;;31.83;10.35;;;6.70;92.00;;;;;;5105757;27;20035;-86
2024/01/25 11:50:48;;;;;;;36.58;10.48;;;6.80;92.00;;;;;;5121328;28;20088;-86
2024/01/25 11:53:13;;;;;;;36.78;9.48;;;6.80;92.00;;;;;;5122572;27;20053;-86
2024/01/25 11:55:39;;;;;;;32.67;9.15;;;6.80;92.00;;;;;;5106442;28;20114;-86
2024/01/25 11:58:05;;;;;;;36.63;9.88;;;6.90;92.00;;;;;;5123192;28;20070;-86
2024/01/25 12:00:31;;;;;;;33.15;9.38;;;6.90;92.00;;;;;;5119067;28;20040;-86
2024/01/25 12:02:56;;;;;;;39.20;9.23;;;6.90;92.00;;;;;;5105632;28;20039;-86
2024/01/25 12:05:22;;;;;;;36.88;9.38;;;7.20;92.10;;;;;;5117206;27;20541;-86
2024/01/25 12:07:48;;;;;;;36.83;8.82;;;7.00;92.00;;;;;;5126336;27;20034;-86
2024/01/25 12:10:19;;;;;;;32.53;8.80;;;7.70;92.20;;;;;;5102380;28;20040;-86
2024/01/25 12:12:45;;;;;;;33.60;8.02;;;7.70;92.20;;;;;;5119460;27;20035;-85
2024/01/25 12:15:11;;;;;;;35.35;7.95;;;7.00;92.00;;;;;;5122562;27;20031;-86
2024/01/25 12:17:38;;;;;;;29.60;9.25;;;7.10;92.00;;;;;;5123679;27;20031;-86
2024/01/25 12:20:07;;;;;;;36.03;8.38;;;7.20;92.00;;;;;;5124750;27;20467;-86
2024/01/25 12:22:33;;;;;;;31.52;8.18;;;7.10;91.90;;;;;;5106101;27;20039;-86
2024/01/25 12:24:59;;;;;;;38.15;8.25;;;7.10;91.90;;;;;;5123257;27;20027;-86
2024/01/25 12:27:26;;;;;;;35.17;9.15;;;7.60;92.00;;;;;;5115959;27;20043;-87
2024/01/25 12:29:55;;;;;;;36.78;8.70;;;7.90;92.00;;;;;;5110642;27;20456;-87
2024/01/25 12:32:21;;;;;;;25.27;7.18;;;7.20;91.80;;;;;;5124234;27;20071;-86
2024/01/25 12:35:03;;;;;;;33.20;8.23;;;7.20;91.70;;;;;;5117334;27;20493;-86
2024/01/25 12:37:29;;;;;;;29.48;8.75;;;7.10;91.60;;;;;;5100571;27;20055;-86
2024/01/25 12:39:55;;;;;;;43.55;9.32;;;7.10;91.50;;;;;;5128905;27;20050;-86